Time;durP1;ratioP1;P1;durP2;ratioP2;P2;SDS_P1;SDS_P2;PMS_P1;PMS_P2;Temp;Humidity;BMP_temperature;BMP_pressure;BME280_temperature;BME280_humidity;BME280_pressure;Samples;Min_cycle;Max_cycle;Signal;HPM_P1;HPM_P2
2022/11/05 00:16:42;;;;;;;2.55;2.35;;;17.70;92.40;;;;;;5054442;28;20179;-68
2022/11/05 00:16:50;;;;;;;2.13;2.00;;;17.70;92.30;;;;;;5055172;28;20259;-69
2022/11/05 00:19:16;;;;;;;2.20;2.00;;;17.70;92.40;;;;;;5054269;28;20183;-68
2022/11/05 00:27:10;;;;;;;2.17;1.92;;;17.70;92.30;;;;;;5055407;28;20173;-69
2022/11/05 00:29:36;;;;;;;2.20;1.92;;;17.70;92.30;;;;;;5037929;28;20178;-69
2022/11/05 00:32:02;;;;;;;2.08;1.90;;;17.70;92.30;;;;;;5037554;28;20275;-68
2022/11/05 00:34:27;;;;;;;2.05;1.88;;;17.70;92.30;;;;;;5054036;28;20198;-68
2022/11/05 00:36:53;;;;;;;2.08;1.77;;;17.70;92.30;;;;;;5036951;28;20178;-69
2022/11/05 00:39:19;;;;;;;2.10;1.85;;;17.70;92.30;;;;;;5053596;28;20235;-69
2022/11/05 00:44:58;;;;;;;2.15;1.95;;;17.70;92.20;;;;;;5053772;28;20255;-68
2022/11/05 00:49:58;;;;;;;2.08;1.80;;;17.70;92.40;;;;;;5053616;28;20665;-69
2022/11/05 00:55:08;;;;;;;2.55;1.70;;;17.70;92.40;;;;;;5053334;28;20209;-69
2022/11/05 00:57:34;;;;;;;2.15;1.90;;;17.70;92.40;;;;;;5053655;28;20240;-68
2022/11/05 01:00:00;;;;;;;2.15;1.95;;;17.70;92.40;;;;;;5036953;28;20185;-69
2022/11/05 01:02:25;;;;;;;2.40;1.85;;;17.70;92.30;;;;;;5053748;28;20297;-68
2022/11/05 01:04:51;;;;;;;2.35;1.65;;;17.70;92.30;;;;;;5054325;28;20213;-68
2022/11/05 01:07:17;;;;;;;1.90;1.80;;;17.70;92.40;;;;;;5053211;28;20185;-69
2022/11/05 01:09:42;;;;;;;1.80;1.38;;;17.70;92.30;;;;;;5053332;28;20190;-69
2022/11/05 01:12:08;;;;;;;2.10;1.90;;;17.70;92.40;;;;;;5036720;28;20193;-69
2022/11/05 01:14:34;;;;;;;2.00;1.80;;;17.70;92.40;;;;;;5036420;28;20212;-68
2022/11/05 01:16:59;;;;;;;2.45;1.80;;;17.70;92.30;;;;;;5036653;28;20229;-69
2022/11/05 01:19:25;;;;;;;2.75;1.70;;;17.70;92.40;;;;;;5036542;28;20201;-69
2022/11/05 01:21:51;;;;;;;1.70;1.60;;;17.70;92.50;;;;;;5053511;28;20240;-69
2022/11/05 01:24:16;;;;;;;1.95;1.75;;;17.70;92.40;;;;;;5053130;28;20186;-68
2022/11/05 01:26:42;;;;;;;2.00;1.60;;;17.70;92.30;;;;;;5036217;28;20213;-69
2022/11/05 01:29:09;;;;;;;2.97;1.90;;;17.70;92.40;;;;;;5036588;28;20188;-69
2022/11/05 01:31:35;;;;;;;1.60;1.50;;;17.70;92.50;;;;;;5053211;28;20182;-69
2022/11/05 01:34:01;;;;;;;1.40;1.30;;;17.70;92.40;;;;;;5036253;28;20200;-69
2022/11/05 01:36:26;;;;;;;1.88;1.58;;;17.70;92.50;;;;;;5053742;28;20202;-68
2022/11/05 01:38:52;;;;;;;2.25;1.58;;;17.70;92.40;;;;;;5054365;28;20189;-69
2022/11/05 01:41:18;;;;;;;2.10;1.55;;;17.70;92.40;;;;;;5052771;28;20178;-69
2022/11/05 01:43:49;;;;;;;1.52;1.40;;;17.70;92.40;;;;;;5052827;28;20171;-69
2022/11/05 01:46:41;;;;;;;1.60;1.50;;;17.70;92.40;;;;;;5053604;28;20202;-69
2022/11/05 01:49:27;;;;;;;2.00;1.40;;;17.70;92.40;;;;;;5053004;28;20811;-69
2022/11/05 01:51:54;;;;;;;1.80;1.30;;;17.70;92.20;;;;;;5052862;28;20190;-69
2022/11/05 01:54:26;;;;;;;1.63;1.52;;;17.70;92.30;;;;;;5051385;28;20185;-68
2022/11/05 01:57:02;;;;;;;1.52;1.42;;;17.70;92.40;;;;;;5035906;28;20214;-68
2022/11/05 01:59:42;;;;;;;1.77;1.35;;;17.70;92.30;;;;;;5052568;28;20174;-69
2022/11/05 02:02:08;;;;;;;1.48;1.38;;;17.70;92.40;;;;;;5052254;28;20206;-69
2022/11/05 02:04:44;;;;;;;2.65;1.20;;;17.70;92.50;;;;;;5052277;28;20213;-69
2022/11/05 02:07:11;;;;;;;1.42;1.30;;;17.70;92.40;;;;;;5052612;28;20223;-69
2022/11/05 02:09:53;;;;;;;1.70;1.60;;;17.70;92.20;;;;;;5052453;28;20202;-68
2022/11/05 02:12:20;;;;;;;1.50;1.30;;;17.70;92.20;;;;;;5052164;28;20187;-69
2022/11/05 02:14:46;;;;;;;1.33;1.20;;;17.70;92.20;;;;;;5051892;28;20575;-68
2022/11/05 02:17:36;;;;;;;1.65;1.40;;;17.70;92.30;;;;;;5052207;28;20182;-69
2022/11/05 02:20:32;;;;;;;1.30;1.20;;;17.70;92.40;;;;;;5052015;28;20197;-69
2022/11/05 02:23:29;;;;;;;1.35;1.25;;;17.70;92.30;;;;;;5053078;28;20198;-69
2022/11/05 02:26:35;;;;;;;1.40;1.30;;;17.70;92.40;;;;;;5051610;28;20305;-68
2022/11/05 02:29:34;;;;;;;1.35;1.13;;;17.70;92.30;;;;;;5053476;28;20186;-69
2022/11/05 02:32:19;;;;;;;1.40;1.30;;;17.70;92.20;;;;;;5052006;28;20308;-68
2022/11/05 02:35:14;;;;;;;1.33;1.10;;;17.70;92.20;;;;;;5051609;28;20198;-68
2022/11/05 02:37:50;;;;;;;1.35;1.25;;;17.70;92.30;;;;;;5052930;28;20190;-69
2022/11/05 02:40:46;;;;;;;1.25;1.15;;;17.70;92.20;;;;;;5051758;28;20229;-69
2022/11/05 02:43:45;;;;;;;1.20;1.10;;;17.70;92.20;;;;;;5035356;28;20210;-69
2022/11/05 02:46:52;;;;;;;1.10;1.10;;;17.70;92.20;;;;;;5067839;28;20685;-69
2022/11/05 02:49:51;;;;;;;1.20;1.10;;;17.70;92.20;;;;;;5021030;28;20232;-68
2022/11/05 02:52:39;;;;;;;1.02;1.02;;;17.70;92.20;;;;;;5035046;28;20225;-69
2022/11/05 02:55:35;;;;;;;2.25;1.00;;;17.70;92.20;;;;;;5051301;28;20584;-69
2022/11/05 02:58:05;;;;;;;1.27;1.20;;;17.70;92.20;;;;;;5052608;28;20277;-68
2022/11/05 03:00:34;;;;;;;1.42;1.30;;;17.70;92.20;;;;;;5051595;28;20178;-69
2022/11/05 03:03:00;;;;;;;1.13;0.90;;;17.70;92.30;;;;;;5051259;28;20289;-69
2022/11/05 03:05:43;;;;;;;0.90;0.90;;;17.70;92.30;;;;;;5050965;28;20202;-69
2022/11/05 03:08:30;;;;;;;0.98;0.95;;;17.70;92.10;;;;;;5052367;28;20170;-68
2022/11/05 03:11:17;;;;;;;1.30;1.20;;;17.70;92.50;;;;;;5034939;28;20249;-69
2022/11/05 03:13:58;;;;;;;1.77;1.00;;;17.70;92.10;;;;;;5034627;28;20189;-69
2022/11/05 03:16:41;;;;;;;1.20;1.10;;;17.70;92.20;;;;;;5034523;28;20210;-69
2022/11/05 03:19:22;;;;;;;1.10;1.00;;;17.70;92.30;;;;;;5067801;28;20178;-69
2022/11/05 03:22:07;;;;;;;1.30;1.20;;;17.70;92.30;;;;;;5050736;28;20232;-69
2022/11/05 03:24:37;;;;;;;0.90;0.90;;;17.70;92.20;;;;;;5050990;28;20182;-68
2022/11/05 03:27:12;;;;;;;1.00;1.00;;;17.70;92.20;;;;;;5051059;28;20178;-69
2022/11/05 03:29:46;;;;;;;1.00;1.00;;;17.70;92.20;;;;;;5051093;28;20269;-69
2022/11/05 03:32:16;;;;;;;1.15;1.08;;;17.70;92.20;;;;;;5034747;28;20186;-69
2022/11/05 03:34:48;;;;;;;1.00;1.00;;;17.70;92.10;;;;;;5050963;28;20178;-69
2022/11/05 03:37:21;;;;;;;1.05;1.02;;;17.70;92.00;;;;;;5052159;28;20225;-69
2022/11/05 03:39:57;;;;;;;1.20;1.10;;;17.70;92.10;;;;;;5051195;28;20174;-69
2022/11/05 03:42:28;;;;;;;1.05;0.93;;;17.70;92.20;;;;;;5050726;28;20241;-69
2022/11/05 03:44:59;;;;;;;1.08;0.93;;;17.70;92.30;;;;;;5033755;28;20222;-68
2022/11/05 03:47:37;;;;;;;0.80;0.80;;;17.70;92.30;;;;;;5050934;28;20175;-69
2022/11/05 03:50:16;;;;;;;1.10;1.00;;;17.70;92.20;;;;;;5051078;28;20178;-69
2022/11/05 03:53:13;;;;;;;0.80;0.80;;;17.60;92.10;;;;;;5051980;28;20197;-69
2022/11/05 03:55:55;;;;;;;1.15;0.90;;;17.70;92.20;;;;;;5050136;28;20210;-69
2022/11/05 03:58:22;;;;;;;0.93;0.93;;;17.70;92.10;;;;;;5050917;28;20198;-69
2022/11/05 04:00:49;;;;;;;1.05;0.95;;;17.70;92.20;;;;;;5050694;28;20178;-69
2022/11/05 04:03:15;;;;;;;0.90;0.90;;;17.70;92.30;;;;;;5050619;28;20226;-69
2022/11/05 04:05:41;;;;;;;2.03;1.10;;;17.70;92.20;;;;;;5033837;28;20198;-69
2022/11/05 04:13:37;;;;;;;0.90;0.90;;;17.70;92.20;;;;;;5051899;28;20171;-69
2022/11/05 04:18:47;;;;;;;1.20;0.80;;;17.70;92.20;;;;;;5051725;28;20170;-69
2022/11/05 04:24:09;;;;;;;0.68;0.68;;;17.70;92.20;;;;;;5054243;28;20558;-69
2022/11/05 04:26:45;;;;;;;0.80;0.80;;;17.70;92.20;;;;;;5053956;28;20225;-69
2022/11/05 04:31:56;;;;;;;0.68;0.68;;;17.70;92.30;;;;;;5054402;28;20282;-69
2022/11/05 04:34:22;;;;;;;0.80;0.80;;;17.70;92.20;;;;;;5053955;28;20186;-69
2022/11/05 04:36:50;;;;;;;0.77;0.70;;;17.70;92.20;;;;;;5070357;28;20573;-68
2022/11/05 04:39:17;;;;;;;0.80;0.80;;;17.70;92.20;;;;;;5054039;28;20183;-68
2022/11/05 04:41:46;;;;;;;1.02;0.90;;;17.70;92.20;;;;;;5053911;28;20252;-69
2022/11/05 04:44:14;;;;;;;0.70;0.70;;;17.70;92.20;;;;;;5053737;28;20178;-69
2022/11/05 04:46:39;;;;;;;0.60;0.60;;;17.70;92.20;;;;;;5053618;28;20712;-69
2022/11/05 04:49:05;;;;;;;0.80;0.80;;;17.70;92.20;;;;;;5037157;28;20190;-68
2022/11/05 04:51:31;;;;;;;0.70;0.70;;;17.70;92.10;;;;;;5053836;28;20193;-69
2022/11/05 04:53:57;;;;;;;0.90;0.80;;;17.70;92.10;;;;;;5053732;28;20179;-69
2022/11/05 04:56:24;;;;;;;1.00;0.88;;;17.70;92.10;;;;;;5036896;28;20221;-69
2022/11/05 04:58:50;;;;;;;0.65;0.65;;;17.70;92.10;;;;;;5053710;28;20182;-69
2022/11/05 05:01:22;;;;;;;0.80;0.80;;;17.70;92.10;;;;;;5053547;28;20182;-69
2022/11/05 05:03:51;;;;;;;0.70;0.70;;;17.70;92.10;;;;;;5070384;28;20203;-68
2022/11/05 05:06:18;;;;;;;0.70;0.70;;;17.70;92.30;;;;;;5053445;28;20674;-69
2022/11/05 05:08:47;;;;;;;0.65;0.65;;;17.70;92.20;;;;;;5054595;28;20170;-69
2022/11/05 05:11:16;;;;;;;0.80;0.80;;;17.70;92.30;;;;;;5037026;28;20210;-69
2022/11/05 05:13:43;;;;;;;0.80;0.80;;;17.70;92.30;;;;;;5054517;28;20197;-69
2022/11/05 05:16:25;;;;;;;1.27;0.73;;;17.70;92.30;;;;;;5052985;28;20285;-69
2022/11/05 05:18:52;;;;;;;1.00;0.93;;;17.70;92.20;;;;;;5053412;28;20171;-69
2022/11/05 05:21:39;;;;;;;1.25;0.77;;;17.70;92.20;;;;;;5053169;28;20214;-69
2022/11/05 05:24:18;;;;;;;0.70;0.70;;;17.70;92.20;;;;;;5053324;28;20253;-69
2022/11/05 05:26:49;;;;;;;0.70;0.70;;;17.70;92.20;;;;;;5052881;28;20220;-69
2022/11/05 05:29:16;;;;;;;0.70;0.70;;;17.70;92.10;;;;;;5036766;28;20170;-68
2022/11/05 05:31:42;;;;;;;0.88;0.70;;;17.70;92.10;;;;;;5052031;28;20174;-69
2022/11/05 05:34:11;;;;;;;0.50;0.50;;;17.70;92.10;;;;;;5052905;28;20182;-69
2022/11/05 05:36:37;;;;;;;0.50;0.50;;;17.70;92.20;;;;;;5052547;28;20202;-69
2022/11/05 05:39:09;;;;;;;1.40;0.82;;;17.70;92.20;;;;;;5052805;28;20244;-69
2022/11/05 05:41:35;;;;;;;0.73;0.68;;;17.70;92.30;;;;;;5052636;28;20642;-69
2022/11/05 05:44:01;;;;;;;0.60;0.60;;;17.70;92.20;;;;;;5052697;28;20194;-69
2022/11/05 05:46:26;;;;;;;0.60;0.60;;;17.70;92.30;;;;;;5053584;28;20285;-69
2022/11/05 05:48:52;;;;;;;0.60;0.60;;;17.70;92.20;;;;;;5052799;28;20183;-69
2022/11/05 05:51:19;;;;;;;0.68;0.60;;;17.70;92.60;;;;;;5052733;28;20274;-69
2022/11/05 05:53:45;;;;;;;0.60;0.60;;;17.70;92.20;;;;;;5052787;28;20272;-69
2022/11/05 05:56:13;;;;;;;0.60;0.60;;;17.70;92.20;;;;;;5053425;28;20213;-69
2022/11/05 05:58:40;;;;;;;0.60;0.60;;;17.60;92.10;;;;;;5053756;28;20261;-69
2022/11/05 06:01:12;;;;;;;0.60;0.60;;;17.70;92.10;;;;;;5036134;28;20193;-69
2022/11/05 06:03:38;;;;;;;0.80;0.57;;;17.70;92.20;;;;;;5052321;28;20281;-69
2022/11/05 06:06:08;;;;;;;0.95;0.60;;;17.70;92.50;;;;;;5035414;28;20234;-69
2022/11/05 06:08:35;;;;;;;0.75;0.60;;;17.70;92.20;;;;;;5052358;28;20179;-69
2022/11/05 06:11:03;;;;;;;0.57;0.57;;;17.70;92.10;;;;;;5053411;28;20170;-69
2022/11/05 06:13:29;;;;;;;0.52;0.52;;;17.70;92.10;;;;;;5052304;28;20210;-69
2022/11/05 06:16:07;;;;;;;0.55;0.55;;;17.70;92.20;;;;;;5053125;28;20206;-70
2022/11/05 06:18:34;;;;;;;0.60;0.50;;;17.70;92.20;;;;;;5035983;28;20222;-69
2022/11/05 06:21:13;;;;;;;0.57;0.57;;;17.70;92.20;;;;;;5035720;28;20190;-69
2022/11/05 06:23:41;;;;;;;0.50;0.50;;;17.70;92.20;;;;;;5035464;28;20217;-68
2022/11/05 06:26:11;;;;;;;0.70;0.70;;;17.70;92.20;;;;;;5035111;28;20225;-69
2022/11/05 06:28:37;;;;;;;0.68;0.50;;;17.70;92.30;;;;;;5035244;28;20270;-69
2022/11/05 06:31:04;;;;;;;0.50;0.50;;;17.70;92.20;;;;;;5053094;28;20281;-69
2022/11/05 06:33:30;;;;;;;0.60;0.60;;;17.70;92.30;;;;;;5035583;28;20194;-69
2022/11/05 06:36:01;;;;;;;0.68;0.68;;;17.70;92.20;;;;;;5051388;28;20198;-69
2022/11/05 06:38:30;;;;;;;0.50;0.50;;;17.70;92.20;;;;;;5035128;28;20186;-69
2022/11/05 06:40:59;;;;;;;0.40;0.40;;;17.70;92.10;;;;;;5051550;28;20182;-69
2022/11/05 06:43:26;;;;;;;0.50;0.50;;;17.70;92.20;;;;;;5034888;28;20215;-69
2022/11/05 06:45:52;;;;;;;0.65;0.65;;;17.70;92.20;;;;;;5034822;28;20242;-69
2022/11/05 06:48:18;;;;;;;0.50;0.50;;;17.70;92.30;;;;;;5051658;28;20657;-69
2022/11/05 06:50:45;;;;;;;0.60;0.60;;;17.70;92.20;;;;;;5035062;28;20186;-69
2022/11/05 06:53:12;;;;;;;0.60;0.60;;;17.70;92.00;;;;;;5035302;28;20178;-69
2022/11/05 06:55:39;;;;;;;0.60;0.60;;;17.70;92.10;;;;;;5051229;28;20219;-69
2022/11/05 06:58:05;;;;;;;0.60;0.60;;;17.70;92.20;;;;;;5035241;28;20174;-69
2022/11/05 07:00:31;;;;;;;0.50;0.50;;;17.70;92.20;;;;;;5051725;28;20171;-69
2022/11/05 07:03:05;;;;;;;0.60;0.50;;;17.70;92.30;;;;;;5051309;28;20252;-69
2022/11/05 07:05:32;;;;;;;0.50;0.40;;;17.70;92.20;;;;;;5050872;28;20240;-69
2022/11/05 07:07:58;;;;;;;0.40;0.40;;;17.70;92.20;;;;;;5051225;28;20251;-69
2022/11/05 07:10:24;;;;;;;0.40;0.40;;;17.70;92.10;;;;;;5051028;28;20242;-69
2022/11/05 07:12:50;;;;;;;0.60;0.50;;;17.70;92.30;;;;;;5051561;28;20265;-69
2022/11/05 07:15:16;;;;;;;0.52;0.52;;;17.70;92.30;;;;;;5052036;28;20199;-68
2022/11/05 07:17:42;;;;;;;0.50;0.50;;;17.70;92.20;;;;;;5051221;28;20208;-69
2022/11/05 07:20:09;;;;;;;0.43;0.40;;;17.70;92.30;;;;;;5052282;28;20178;-69
2022/11/05 07:22:35;;;;;;;0.43;0.43;;;17.70;92.20;;;;;;5037469;28;20205;-68
2022/11/05 07:25:03;;;;;;;0.50;0.50;;;17.70;92.20;;;;;;5054300;28;20216;-69
2022/11/05 07:27:28;;;;;;;0.63;0.63;;;17.70;92.10;;;;;;5057191;28;20183;-69
2022/11/05 07:29:54;;;;;;;0.45;0.45;;;17.70;92.10;;;;;;5043705;28;20178;-70
2022/11/05 07:32:20;;;;;;;0.50;0.50;;;17.70;92.00;;;;;;5070227;28;20189;-69
2022/11/05 07:34:45;;;;;;;0.40;0.40;;;17.70;91.90;;;;;;5041754;28;20199;-69
2022/11/05 07:37:11;;;;;;;0.60;0.60;;;17.70;92.00;;;;;;5051369;28;20186;-69
2022/11/05 07:39:37;;;;;;;0.60;0.60;;;17.70;91.90;;;;;;5034306;28;20560;-68
2022/11/05 07:42:03;;;;;;;0.57;0.57;;;17.70;91.80;;;;;;5050831;28;20220;-69
2022/11/05 07:44:32;;;;;;;0.45;0.45;;;17.70;91.90;;;;;;5056487;28;20184;-69
2022/11/05 07:46:58;;;;;;;0.82;0.57;;;17.70;91.80;;;;;;5032095;28;20186;-69
2022/11/05 07:49:23;;;;;;;0.50;0.50;;;17.70;91.80;;;;;;5061232;28;20183;-69
2022/11/05 07:51:49;;;;;;;0.50;0.50;;;17.70;91.80;;;;;;5060430;28;20264;-69
2022/11/05 07:54:15;;;;;;;0.60;0.60;;;17.70;91.70;;;;;;5055606;28;20186;-69
2022/11/05 07:56:40;;;;;;;0.50;0.50;;;17.70;91.80;;;;;;5039128;28;20305;-69
2022/11/05 07:59:06;;;;;;;0.90;0.52;;;17.70;91.80;;;;;;5038132;28;20194;-69
2022/11/05 08:01:32;;;;;;;0.40;0.40;;;17.70;91.90;;;;;;5054670;28;20182;-69
2022/11/05 08:03:57;;;;;;;0.47;0.47;;;17.70;91.90;;;;;;5055520;28;20187;-69
2022/11/05 08:06:23;;;;;;;1.17;0.50;;;17.70;91.90;;;;;;5058729;28;20356;-69
2022/11/05 08:08:49;;;;;;;0.40;0.40;;;17.70;91.90;;;;;;5034744;28;20190;-69
2022/11/05 08:11:14;;;;;;;1.55;0.43;;;17.70;91.90;;;;;;5034530;28;20270;-69
2022/11/05 08:13:41;;;;;;;0.60;0.47;;;17.70;91.80;;;;;;5034752;28;20337;-70
2022/11/05 08:16:08;;;;;;;1.15;0.50;;;17.70;91.80;;;;;;5034329;28;20195;-69
2022/11/05 08:18:34;;;;;;;0.50;0.50;;;17.70;91.80;;;;;;5051290;28;20183;-69
2022/11/05 08:21:04;;;;;;;0.68;0.68;;;17.70;91.80;;;;;;5036020;28;20175;-69
2022/11/05 08:23:31;;;;;;;0.70;0.70;;;17.70;91.70;;;;;;5039630;28;20206;-69
2022/11/05 08:25:57;;;;;;;0.80;0.80;;;17.70;91.70;;;;;;5054271;28;20640;-69
2022/11/05 08:28:25;;;;;;;0.73;0.73;;;17.70;91.80;;;;;;5064695;28;20191;-69
2022/11/05 08:30:54;;;;;;;0.60;0.60;;;17.70;91.80;;;;;;5054935;28;20194;-69
2022/11/05 08:33:22;;;;;;;0.82;0.77;;;17.70;91.80;;;;;;5057528;28;20677;-69
2022/11/05 08:35:49;;;;;;;0.77;0.77;;;17.70;91.80;;;;;;5053664;28;20576;-69
2022/11/05 08:38:18;;;;;;;0.80;0.80;;;17.70;91.80;;;;;;5055220;28;20183;-69
2022/11/05 08:40:53;;;;;;;0.70;0.70;;;17.70;91.80;;;;;;5060513;28;20213;-69
2022/11/05 08:43:19;;;;;;;0.52;0.52;;;17.70;91.80;;;;;;5073816;28;20212;-69
2022/11/05 08:45:45;;;;;;;0.50;0.50;;;17.70;91.90;;;;;;5074250;28;20210;-69
2022/11/05 08:48:14;;;;;;;0.60;0.60;;;17.70;91.90;;;;;;5061534;28;20186;-69
2022/11/05 08:50:40;;;;;;;0.82;0.60;;;17.70;91.90;;;;;;5054036;28;20269;-69
2022/11/05 08:53:07;;;;;;;0.52;0.50;;;17.70;91.80;;;;;;5058798;28;20182;-69
2022/11/05 08:55:34;;;;;;;0.60;0.60;;;17.70;91.90;;;;;;5056901;28;20217;-69
2022/11/05 08:58:03;;;;;;;0.50;0.50;;;17.70;91.80;;;;;;5037479;28;20183;-69
2022/11/05 09:00:33;;;;;;;0.57;0.57;;;17.70;91.80;;;;;;5054718;28;20189;-69
2022/11/05 09:03:01;;;;;;;0.60;0.60;;;17.70;91.70;;;;;;5065633;28;20209;-69
2022/11/05 09:05:30;;;;;;;1.33;0.60;;;17.70;91.70;;;;;;5056474;28;20571;-69
2022/11/05 09:07:56;;;;;;;0.60;0.60;;;17.70;91.60;;;;;;5069471;28;20205;-69
2022/11/05 09:10:22;;;;;;;0.50;0.50;;;17.70;91.70;;;;;;5071850;28;20224;-69
2022/11/05 09:12:48;;;;;;;0.60;0.60;;;17.70;91.70;;;;;;5037140;28;20256;-69
2022/11/05 09:15:14;;;;;;;0.60;0.60;;;17.70;91.70;;;;;;5053305;28;20623;-68
2022/11/05 09:17:39;;;;;;;1.67;0.93;;;17.70;91.80;;;;;;5065740;28;20186;-69
2022/11/05 09:20:07;;;;;;;0.60;0.60;;;17.70;91.90;;;;;;5073360;28;20180;-69
2022/11/05 09:22:33;;;;;;;1.00;0.70;;;17.80;91.80;;;;;;5064218;28;20203;-69
2022/11/05 09:24:58;;;;;;;0.60;0.60;;;17.80;91.80;;;;;;5033235;28;20269;-69
2022/11/05 09:27:25;;;;;;;0.60;0.60;;;17.70;92.00;;;;;;5046764;28;20593;-69
2022/11/05 09:29:51;;;;;;;0.73;0.68;;;17.80;91.70;;;;;;5048195;28;20237;-69
2022/11/05 09:32:18;;;;;;;0.75;0.50;;;17.80;91.70;;;;;;5072581;28;20183;-69
2022/11/05 09:34:44;;;;;;;0.80;0.80;;;17.80;91.60;;;;;;5068613;28;20194;-70
2022/11/05 09:37:11;;;;;;;0.63;0.63;;;17.80;91.60;;;;;;5035158;28;20177;-69
2022/11/05 09:39:36;;;;;;;0.93;0.73;;;17.80;91.70;;;;;;5032915;28;20632;-70
2022/11/05 09:42:10;;;;;;;0.77;0.70;;;17.80;91.50;;;;;;5053678;28;20209;-69
2022/11/05 09:44:44;;;;;;;1.00;0.80;;;17.80;91.50;;;;;;5054502;28;20189;-69
2022/11/05 09:47:21;;;;;;;0.95;0.60;;;17.80;91.50;;;;;;5072568;28;20173;-69
2022/11/05 09:50:01;;;;;;;0.70;0.70;;;17.80;91.60;;;;;;5038985;28;20203;-69
2022/11/05 09:52:31;;;;;;;1.00;0.70;;;17.80;91.70;;;;;;5016062;28;20183;-69
2022/11/05 09:54:58;;;;;;;0.68;0.65;;;17.80;91.60;;;;;;5032975;28;20217;-70
2022/11/05 09:57:42;;;;;;;0.73;0.68;;;17.80;91.50;;;;;;5032660;28;20226;-69
2022/11/05 10:00:15;;;;;;;0.70;0.70;;;17.80;91.50;;;;;;5054674;28;20195;-69
2022/11/05 10:02:52;;;;;;;0.60;0.60;;;17.80;91.50;;;;;;5032635;28;20677;-69
2022/11/05 10:05:19;;;;;;;0.73;0.70;;;17.80;91.30;;;;;;5032317;28;20233;-69
2022/11/05 10:07:58;;;;;;;0.80;0.80;;;17.80;91.20;;;;;;5032578;28;20241;-68
2022/11/05 10:10:35;;;;;;;1.70;0.77;;;17.80;91.20;;;;;;5015757;28;20187;-69
2022/11/05 10:13:13;;;;;;;0.60;0.60;;;17.80;91.50;;;;;;5032360;28;20213;-69
2022/11/05 10:15:50;;;;;;;2.15;0.80;;;17.80;91.30;;;;;;5031943;28;20214;-69
2022/11/05 10:18:27;;;;;;;1.05;0.80;;;17.80;91.40;;;;;;5015682;28;20187;-70
2022/11/05 10:20:54;;;;;;;0.90;0.90;;;17.80;91.40;;;;;;5015676;28;20179;-69
2022/11/05 10:23:21;;;;;;;0.90;0.52;;;17.80;91.50;;;;;;5032094;28;20695;-69
2022/11/05 10:26:10;;;;;;;1.95;0.82;;;17.80;91.50;;;;;;5031789;28;20209;-68
2022/11/05 10:28:36;;;;;;;0.70;0.70;;;17.80;91.30;;;;;;5027224;28;20185;-69
2022/11/05 10:31:10;;;;;;;1.35;0.60;;;17.80;91.50;;;;;;5055669;28;20220;-68
2022/11/05 10:33:58;;;;;;;0.80;0.70;;;17.80;91.50;;;;;;5051630;28;20170;-69
2022/11/05 10:36:30;;;;;;;0.90;0.70;;;17.80;91.50;;;;;;5051528;28;20220;-69
2022/11/05 10:39:08;;;;;;;0.70;0.70;;;17.80;91.50;;;;;;5051960;28;20203;-70
2022/11/05 10:42:03;;;;;;;1.05;0.90;;;17.80;91.50;;;;;;5034922;28;20265;-68
2022/11/05 10:45:24;;;;;;;0.68;0.68;;;17.80;91.60;;;;;;5021208;28;20194;-70
2022/11/05 10:47:59;;;;;;;0.60;0.60;;;17.80;91.60;;;;;;5013878;28;20202;-68
2022/11/05 10:50:28;;;;;;;0.75;0.60;;;17.80;91.60;;;;;;5031879;28;20190;-69
2022/11/05 10:52:58;;;;;;;1.00;0.70;;;17.80;91.60;;;;;;5015019;28;20187;-70
2022/11/05 10:55:26;;;;;;;0.77;0.77;;;17.80;91.50;;;;;;5045994;28;20209;-69
2022/11/05 10:57:52;;;;;;;1.00;0.90;;;17.80;91.50;;;;;;5071391;28;20177;-70
2022/11/05 11:00:22;;;;;;;0.85;0.85;;;17.80;91.60;;;;;;5065714;28;20259;-70
2022/11/05 11:02:59;;;;;;;1.33;1.00;;;17.80;91.50;;;;;;5043907;28;20207;-70
2022/11/05 11:05:34;;;;;;;0.90;0.90;;;17.80;91.50;;;;;;5047886;28;20202;-69
2022/11/05 11:08:09;;;;;;;0.93;0.88;;;17.80;91.50;;;;;;5050781;28;20189;-70
2022/11/05 11:10:51;;;;;;;0.90;0.90;;;17.80;91.50;;;;;;5071263;28;20181;-70
2022/11/05 11:13:27;;;;;;;0.80;0.80;;;17.80;91.50;;;;;;5071264;28;20193;-69
2022/11/05 11:16:11;;;;;;;0.95;0.95;;;17.80;91.50;;;;;;5070904;28;20287;-70
2022/11/05 11:18:40;;;;;;;1.10;0.80;;;17.90;91.60;;;;;;5054518;28;20186;-69
2022/11/05 11:21:18;;;;;;;1.00;0.90;;;17.90;91.60;;;;;;5054550;28;20180;-69
2022/11/05 11:24:01;;;;;;;0.93;0.93;;;17.80;91.50;;;;;;5054052;28;20217;-69
2022/11/05 11:26:35;;;;;;;1.17;1.08;;;17.90;91.60;;;;;;5053985;28;20587;-69
2022/11/05 11:29:24;;;;;;;1.08;0.90;;;17.90;91.60;;;;;;5054565;28;20245;-70
2022/11/05 11:31:55;;;;;;;1.17;1.13;;;17.90;91.50;;;;;;5071169;28;20166;-70
2022/11/05 11:34:38;;;;;;;1.00;0.93;;;17.90;91.50;;;;;;5036348;28;20179;-70
2022/11/05 11:37:19;;;;;;;0.98;0.82;;;17.90;91.60;;;;;;5050590;28;20171;-69
2022/11/05 11:39:56;;;;;;;1.00;0.88;;;17.80;91.50;;;;;;5051222;28;20179;-69
2022/11/05 11:42:33;;;;;;;1.13;1.02;;;17.80;91.50;;;;;;5051103;28;20239;-70
2022/11/05 11:45:15;;;;;;;0.90;0.90;;;17.80;91.50;;;;;;5051026;28;20209;-70
2022/11/05 11:47:48;;;;;;;0.80;0.80;;;17.80;91.70;;;;;;5034322;28;20181;-71
2022/11/05 11:50:38;;;;;;;1.10;1.00;;;17.80;91.80;;;;;;5050821;28;20232;-70
2022/11/05 11:53:19;;;;;;;1.33;1.17;;;17.80;91.90;;;;;;5045053;28;20198;-69
2022/11/05 11:55:54;;;;;;;1.40;1.10;;;17.80;91.70;;;;;;5060280;28;20213;-69
2022/11/05 11:58:40;;;;;;;0.80;0.80;;;17.80;91.70;;;;;;5062425;28;20261;-69
2022/11/05 12:01:12;;;;;;;1.17;1.10;;;17.80;91.80;;;;;;5062637;28;20281;-69
2022/11/05 12:04:18;;;;;;;1.45;1.35;;;17.80;91.70;;;;;;5055939;28;20210;-69
2022/11/05 12:07:14;;;;;;;1.23;1.10;;;17.80;91.70;;;;;;5059648;28;20292;-70
2022/11/05 12:09:55;;;;;;;1.90;1.00;;;17.80;91.70;;;;;;5042616;28;20205;-70
2022/11/05 12:12:46;;;;;;;1.00;0.90;;;17.80;91.60;;;;;;5070711;28;20174;-70
2022/11/05 12:15:51;;;;;;;1.17;1.00;;;17.80;91.70;;;;;;5072041;28;20347;-70
2022/11/05 12:18:44;;;;;;;1.10;1.00;;;17.80;91.60;;;;;;5070390;28;20243;-70
2022/11/05 12:21:44;;;;;;;1.23;1.08;;;17.80;91.50;;;;;;5070344;28;20190;-70
2022/11/05 12:24:44;;;;;;;1.40;1.20;;;17.80;91.50;;;;;;5054166;28;20202;-69
2022/11/05 12:27:48;;;;;;;1.05;1.02;;;17.80;91.50;;;;;;5070332;28;20182;-69
2022/11/05 12:30:20;;;;;;;1.00;0.93;;;17.80;91.50;;;;;;5070583;28;20227;-69
2022/11/05 12:33:16;;;;;;;1.35;1.20;;;17.80;91.50;;;;;;5047384;28;20183;-69
2022/11/05 12:36:01;;;;;;;1.25;1.00;;;17.80;91.50;;;;;;5053578;28;20288;-70
2022/11/05 12:38:35;;;;;;;1.27;1.10;;;17.80;91.50;;;;;;5062996;28;20265;-70
2022/11/05 12:41:14;;;;;;;1.17;1.08;;;17.80;91.70;;;;;;5045166;28;20186;-70
2022/11/05 12:44:28;;;;;;;1.10;1.00;;;17.80;91.60;;;;;;5053706;28;20210;-69
2022/11/05 12:47:48;;;;;;;1.25;1.15;;;17.80;91.50;;;;;;5053711;28;20214;-69
2022/11/05 12:50:27;;;;;;;1.30;1.20;;;17.80;91.50;;;;;;5054703;28;20182;-68
2022/11/05 12:53:30;;;;;;;1.40;1.30;;;17.80;91.50;;;;;;5053707;28;20178;-69
2022/11/05 12:56:04;;;;;;;1.80;1.48;;;17.80;91.50;;;;;;5053145;28;20229;-68
2022/11/05 12:58:38;;;;;;;1.40;1.30;;;17.80;91.40;;;;;;5053573;28;20183;-69
2022/11/05 13:01:42;;;;;;;1.35;1.20;;;17.80;91.50;;;;;;5038209;28;20212;-69
2022/11/05 13:04:52;;;;;;;1.50;1.40;;;17.90;91.60;;;;;;5059610;28;20209;-69
2022/11/05 13:07:33;;;;;;;2.08;1.40;;;17.80;91.60;;;;;;5034774;28;20191;-69
2022/11/05 13:10:13;;;;;;;1.38;1.27;;;17.80;91.50;;;;;;5069820;28;20175;-70
2022/11/05 13:12:42;;;;;;;1.30;1.20;;;17.80;91.50;;;;;;5053731;28;20178;-70
2022/11/05 13:15:24;;;;;;;1.60;1.50;;;17.80;91.60;;;;;;5053053;28;20207;-70
2022/11/05 13:17:59;;;;;;;1.50;1.40;;;17.80;91.60;;;;;;5052960;28;20220;-70
2022/11/05 13:20:32;;;;;;;1.90;1.50;;;17.80;91.50;;;;;;5053164;28;20212;-69
2022/11/05 13:23:09;;;;;;;1.85;1.30;;;17.80;91.60;;;;;;5052917;28;20675;-70
2022/11/05 13:25:45;;;;;;;3.05;1.58;;;17.80;91.60;;;;;;5053044;28;20290;-69
2022/11/05 13:28:22;;;;;;;1.80;1.60;;;17.80;91.50;;;;;;5036557;28;20182;-69
2022/11/05 13:30:54;;;;;;;1.95;1.80;;;17.80;91.50;;;;;;5054244;28;20248;-70
2022/11/05 13:33:27;;;;;;;1.60;1.50;;;17.80;91.70;;;;;;5053359;28;20186;-70
2022/11/05 13:39:32;;;;;;;1.60;1.50;;;17.80;91.60;;;;;;5074481;28;20197;-70
2022/11/05 13:42:26;;;;;;;1.65;1.55;;;17.80;91.70;;;;;;5072966;28;20197;-70
2022/11/05 13:45:11;;;;;;;1.67;1.55;;;17.80;91.50;;;;;;5037094;28;20225;-70
2022/11/05 13:48:46;;;;;;;2.03;1.83;;;17.80;91.70;;;;;;5052350;28;20278;-70
2022/11/05 13:51:39;;;;;;;3.47;2.55;;;17.80;91.70;;;;;;4994523;28;20211;-70
2022/11/05 13:54:39;;;;;;;2.80;2.22;;;17.80;91.50;;;;;;4979162;28;20188;-70
2022/11/05 14:00:28;;;;;;;3.13;2.15;;;17.80;91.80;;;;;;5052265;28;20219;-68
2022/11/05 14:03:03;;;;;;;2.22;2.00;;;17.80;91.50;;;;;;5046154;28;20211;-68
2022/11/05 14:05:40;;;;;;;3.08;2.25;;;17.80;91.50;;;;;;5017017;28;20210;-67
2022/11/05 14:08:25;;;;;;;2.30;2.10;;;17.80;91.70;;;;;;5033618;28;20175;-67
2022/11/05 14:11:19;;;;;;;3.78;2.75;;;17.80;91.70;;;;;;5032908;28;20255;-68